createdAt,value
2023-05-23T00:00:21.026Z,650.00
2023-05-23T00:01:20.979Z,649.00
2023-05-23T00:02:21.075Z,649.00
2023-05-23T00:03:21.196Z,647.00
2023-05-23T00:04:21.236Z,645.00
2023-05-23T00:05:21.116Z,645.00
2023-05-23T00:06:21.161Z,643.00
2023-05-23T00:07:21.196Z,643.00
2023-05-23T00:08:21.259Z,645.00
2023-05-23T00:09:21.283Z,645.00
2023-05-23T00:10:21.287Z,646.00
2023-05-23T00:11:21.358Z,642.00
2023-05-23T00:12:21.417Z,642.00
2023-05-23T00:13:21.420Z,645.00
2023-05-23T00:14:21.465Z,648.00
2023-05-23T00:15:21.514Z,649.00
2023-05-23T00:16:21.724Z,646.00
2023-05-23T00:17:21.600Z,646.00
2023-05-23T00:18:21.619Z,645.00
2023-05-23T00:19:21.702Z,642.00
2023-05-23T00:20:21.699Z,640.00
2023-05-23T00:21:21.739Z,641.00
2023-05-23T00:22:21.752Z,644.00
2023-05-23T00:23:21.808Z,643.00
2023-05-23T00:24:21.855Z,644.00
2023-05-23T00:25:21.886Z,643.00
2023-05-23T00:26:21.924Z,643.00
2023-05-23T00:27:21.957Z,643.00
2023-05-23T00:28:21.995Z,642.00
2023-05-23T00:29:22.050Z,642.00
2023-05-23T00:30:22.049Z,641.00
2023-05-23T00:31:22.107Z,640.00
2023-05-23T00:32:22.313Z,640.00
2023-05-23T00:33:22.459Z,636.00
2023-05-23T00:34:22.260Z,639.00
2023-05-23T00:35:22.293Z,639.00
2023-05-23T00:36:22.339Z,639.00
2023-05-23T00:37:22.369Z,639.00
2023-05-23T00:38:22.413Z,636.00
2023-05-23T00:39:22.456Z,635.00
2023-05-23T00:40:22.453Z,635.00
2023-05-23T00:41:22.493Z,633.00
2023-05-23T00:42:22.529Z,633.00
2023-05-23T00:43:22.572Z,632.00
2023-05-23T00:44:22.956Z,634.00
2023-05-23T00:45:22.663Z,635.00
2023-05-23T00:46:22.721Z,634.00
2023-05-23T00:47:22.760Z,634.00
2023-05-23T00:48:22.869Z,636.00
2023-05-23T00:49:22.811Z,632.00
2023-05-23T00:50:22.897Z,631.00
2023-05-23T00:51:22.914Z,631.00
2023-05-23T00:52:22.940Z,632.00
2023-05-23T00:53:22.955Z,635.00
2023-05-23T00:54:23.032Z,636.00
2023-05-23T00:55:23.077Z,634.00
2023-05-23T00:56:23.121Z,637.00
2023-05-23T00:57:23.152Z,637.00
2023-05-23T00:58:23.199Z,638.00
2023-05-23T00:59:23.232Z,639.00
2023-05-23T01:00:23.305Z,639.00
2023-05-23T01:01:23.287Z,639.00
2023-05-23T01:02:23.390Z,638.00
2023-05-23T01:03:23.536Z,638.00
2023-05-23T01:04:23.474Z,636.00
2023-05-23T01:05:23.436Z,638.00
2023-05-23T01:06:23.490Z,640.00
2023-05-23T01:07:23.537Z,637.00
2023-05-23T01:08:23.545Z,637.00
2023-05-23T01:09:23.600Z,635.00
2023-05-23T01:11:42.926Z,647.00
2023-05-23T01:12:42.900Z,640.00
2023-05-23T01:13:42.932Z,635.00
2023-05-23T01:14:42.913Z,634.00
2023-05-23T01:15:43.116Z,633.00
2023-05-23T01:16:42.966Z,632.00
2023-05-23T01:17:42.918Z,630.00
2023-05-23T01:18:42.889Z,630.00
2023-05-23T01:19:42.985Z,629.00
2023-05-23T01:20:42.889Z,629.00
2023-05-23T01:21:42.859Z,629.00
2023-05-23T01:22:42.849Z,628.00
2023-05-23T01:23:42.854Z,629.00
2023-05-23T01:24:42.861Z,630.00
2023-05-23T01:25:42.937Z,626.00
2023-05-23T01:26:42.822Z,627.00
2023-05-23T01:27:42.831Z,625.00
2023-05-23T01:28:42.835Z,627.00
2023-05-23T01:29:42.833Z,628.00
2023-05-23T01:30:42.827Z,632.00
2023-05-23T01:31:42.856Z,630.00
2023-05-23T01:32:42.814Z,630.00
2023-05-23T01:33:42.768Z,629.00
2023-05-23T01:34:42.781Z,628.00
2023-05-23T01:35:42.938Z,628.00
2023-05-23T01:36:42.750Z,624.00
2023-05-23T01:37:42.743Z,624.00
2023-05-23T01:38:42.755Z,625.00
2023-05-23T01:39:42.752Z,625.00
2023-05-23T01:40:42.735Z,627.00
2023-05-23T01:41:42.747Z,628.00
2023-05-23T01:42:42.733Z,630.00
2023-05-23T01:43:42.737Z,630.00
2023-05-23T01:44:42.728Z,630.00
2023-05-23T01:45:42.955Z,631.00
2023-05-23T01:46:42.707Z,630.00
2023-05-23T01:47:42.795Z,633.00
2023-05-23T01:48:42.683Z,630.00
2023-05-23T01:49:42.671Z,629.00
2023-05-23T01:50:42.703Z,630.00
2023-05-23T01:51:42.771Z,628.00
2023-05-23T01:52:42.670Z,628.00
2023-05-23T01:53:42.665Z,626.00
2023-05-23T01:54:42.698Z,626.00
2023-05-23T01:55:42.637Z,625.00
2023-05-23T01:56:42.667Z,626.00
2023-05-23T01:57:42.663Z,624.00
2023-05-23T01:58:42.627Z,625.00
2023-05-23T01:59:42.661Z,624.00
2023-05-23T02:00:42.690Z,624.00
2023-05-23T02:01:42.804Z,621.00
2023-05-23T02:02:42.881Z,621.00
2023-05-23T02:03:42.916Z,621.00
2023-05-23T02:04:42.850Z,620.00
2023-05-23T02:05:43.311Z,623.00
2023-05-23T02:06:42.957Z,622.00
2023-05-23T02:07:43.087Z,622.00
2023-05-23T02:08:43.017Z,619.00
2023-05-23T02:09:43.091Z,616.00
2023-05-23T02:10:43.129Z,619.00
2023-05-23T02:11:43.145Z,622.00
2023-05-23T02:12:43.198Z,622.00
2023-05-23T02:13:43.237Z,619.00
2023-05-23T02:14:43.262Z,615.00
2023-05-23T02:15:43.311Z,614.00
2023-05-23T02:16:43.360Z,613.00
2023-05-23T02:17:43.420Z,614.00
2023-05-23T02:18:43.433Z,615.00
2023-05-23T02:19:43.482Z,616.00
2023-05-23T02:20:43.519Z,616.00
2023-05-23T02:21:43.559Z,617.00
2023-05-23T02:22:43.584Z,617.00
2023-05-23T02:23:43.715Z,619.00
2023-05-23T02:24:43.686Z,619.00
2023-05-23T02:25:43.709Z,620.00
2023-05-23T02:26:43.737Z,617.00
2023-05-23T02:27:43.823Z,615.00
2023-05-23T02:28:43.841Z,616.00
2023-05-23T02:29:43.879Z,614.00
2023-05-23T02:30:43.929Z,613.00
2023-05-23T02:31:44.073Z,612.00
2023-05-23T02:32:44.040Z,611.00
2023-05-23T02:33:44.049Z,616.00
2023-05-23T02:34:44.093Z,616.00
2023-05-23T02:35:44.113Z,614.00
2023-05-23T02:36:44.163Z,614.00
2023-05-23T02:37:44.227Z,613.00
2023-05-23T02:38:44.229Z,614.00
2023-05-23T02:39:44.390Z,617.00
2023-05-23T02:40:44.303Z,617.00
2023-05-23T02:41:44.370Z,615.00
2023-05-23T02:42:44.413Z,614.00
2023-05-23T02:43:46.750Z,615.00
2023-05-23T02:44:44.521Z,615.00
2023-05-23T02:45:44.539Z,615.00
2023-05-23T02:46:44.650Z,610.00
2023-05-23T02:47:44.675Z,610.00
2023-05-23T02:48:44.696Z,612.00
2023-05-23T02:49:44.723Z,615.00
2023-05-23T02:50:44.750Z,615.00
2023-05-23T02:51:44.790Z,614.00
2023-05-23T02:52:44.851Z,615.00
2023-05-23T02:53:44.895Z,615.00
2023-05-23T02:54:44.926Z,616.00
2023-05-23T02:55:45.049Z,617.00
2023-05-23T02:56:44.987Z,617.00
2023-05-23T02:57:45.052Z,615.00
2023-05-23T02:58:45.090Z,613.00
2023-05-23T02:59:45.122Z,610.00
2023-05-23T03:00:45.147Z,611.00
2023-05-23T03:01:45.256Z,613.00
2023-05-23T03:02:45.323Z,615.00
2023-05-23T03:03:45.372Z,614.00
2023-05-23T03:04:45.326Z,615.00
2023-05-23T03:05:45.378Z,615.00
2023-05-23T03:06:45.398Z,613.00
2023-05-23T03:07:45.431Z,610.00
2023-05-23T03:08:45.511Z,610.00
2023-05-23T03:09:45.552Z,608.00
2023-05-23T03:10:45.598Z,607.00
2023-05-23T03:11:45.741Z,606.00
2023-05-23T03:12:45.665Z,605.00
2023-05-23T03:13:45.696Z,604.00
2023-05-23T03:14:45.761Z,605.00
2023-05-23T03:15:45.803Z,605.00
2023-05-23T03:16:45.877Z,605.00
2023-05-23T03:17:45.936Z,606.00
2023-05-23T03:18:45.942Z,608.00
2023-05-23T03:19:45.976Z,605.00
2023-05-23T03:20:46.010Z,603.00
2023-05-23T03:21:46.045Z,602.00
2023-05-23T03:22:46.141Z,600.00
2023-05-23T03:23:46.126Z,599.00
2023-05-23T03:24:46.174Z,601.00
2023-05-23T03:25:46.212Z,604.00
2023-05-23T03:26:46.247Z,600.00
2023-05-23T03:27:46.390Z,600.00
2023-05-23T03:28:46.320Z,602.00
2023-05-23T03:29:46.376Z,600.00
2023-05-23T03:30:46.415Z,600.00
2023-05-23T03:31:46.470Z,600.00
2023-05-23T03:32:46.563Z,601.00
2023-05-23T03:33:46.562Z,603.00
2023-05-23T03:34:46.625Z,603.00
2023-05-23T03:35:46.644Z,605.00
2023-05-23T03:36:46.712Z,604.00
2023-05-23T03:37:46.763Z,603.00
2023-05-23T03:38:46.776Z,600.00
2023-05-23T03:39:46.838Z,600.00
2023-05-23T03:40:46.870Z,601.00
2023-05-23T03:41:46.940Z,602.00
2023-05-23T03:42:46.941Z,602.00
2023-05-23T03:43:47.114Z,605.00
2023-05-23T03:44:47.060Z,606.00
2023-05-23T03:45:47.130Z,606.00
2023-05-23T03:46:47.146Z,606.00
2023-05-23T03:47:47.231Z,605.00
2023-05-23T03:48:47.198Z,602.00
2023-05-23T03:49:47.249Z,602.00
2023-05-23T03:50:47.286Z,602.00
2023-05-23T03:51:47.348Z,601.00
2023-05-23T03:52:47.378Z,602.00
2023-05-23T03:53:47.440Z,602.00
2023-05-23T03:54:47.466Z,604.00
2023-05-23T03:55:47.569Z,601.00
2023-05-23T03:56:47.557Z,597.00
2023-05-23T03:57:47.583Z,595.00
2023-05-23T03:58:47.629Z,595.00
2023-05-23T03:59:47.783Z,596.00
2023-05-23T04:00:47.708Z,598.00
2023-05-23T04:01:47.761Z,600.00
2023-05-23T04:02:47.895Z,603.00
2023-05-23T04:03:47.967Z,603.00
2023-05-23T04:04:47.885Z,601.00
2023-05-23T04:05:47.931Z,598.00
2023-05-23T04:06:47.954Z,596.00
2023-05-23T04:07:48.001Z,594.00
2023-05-23T04:08:48.046Z,593.00
2023-05-23T04:09:48.112Z,594.00
2023-05-23T04:10:48.134Z,595.00
2023-05-23T04:11:48.187Z,597.00
2023-05-23T04:12:48.301Z,597.00
2023-05-23T04:13:48.250Z,596.00
2023-05-23T04:14:48.292Z,597.00
2023-05-23T04:15:48.483Z,598.00
2023-05-23T04:16:48.398Z,599.00
2023-05-23T04:17:48.486Z,601.00
2023-05-23T04:18:48.536Z,600.00
2023-05-23T04:19:48.518Z,599.00
2023-05-23T04:20:48.549Z,600.00
2023-05-23T04:21:48.594Z,600.00
2023-05-23T04:22:48.688Z,600.00
2023-05-23T04:23:48.695Z,600.00
2023-05-23T04:24:48.729Z,600.00
2023-05-23T04:25:48.755Z,598.00
2023-05-23T04:26:48.820Z,596.00
2023-05-23T04:27:48.820Z,596.00
2023-05-23T04:28:48.982Z,594.00
2023-05-23T04:29:48.941Z,594.00
2023-05-23T04:30:48.962Z,598.00
2023-05-23T04:31:49.143Z,595.00
2023-05-23T04:32:49.065Z,595.00
2023-05-23T04:33:49.092Z,594.00
2023-05-23T04:34:49.130Z,597.00
2023-05-23T04:35:49.165Z,597.00
2023-05-23T04:36:49.242Z,595.00
2023-05-23T04:37:49.278Z,597.00
2023-05-23T04:38:49.332Z,596.00
2023-05-23T04:39:49.367Z,597.00
2023-05-23T04:40:49.417Z,597.00
2023-05-23T04:41:49.428Z,598.00
2023-05-23T04:42:49.469Z,599.00
2023-05-23T04:43:49.528Z,599.00
2023-05-23T04:44:49.586Z,599.00
2023-05-23T04:45:49.651Z,602.00
2023-05-23T04:46:49.639Z,599.00
2023-05-23T04:47:49.855Z,598.00
2023-05-23T04:48:49.730Z,600.00
2023-05-23T04:49:49.775Z,601.00
2023-05-23T04:50:49.814Z,602.00
2023-05-23T04:51:49.872Z,601.00
2023-05-23T04:52:49.901Z,597.00
2023-05-23T04:53:49.944Z,596.00
2023-05-23T04:54:50.007Z,599.00
2023-05-23T04:55:50.030Z,598.00
2023-05-23T04:56:50.060Z,598.00
2023-05-23T04:57:50.110Z,598.00
2023-05-23T04:58:50.151Z,597.00
2023-05-23T04:59:50.230Z,598.00
2023-05-23T05:00:50.245Z,601.00
2023-05-23T05:01:50.260Z,601.00
2023-05-23T05:02:50.382Z,601.00
2023-05-23T05:03:50.486Z,598.00
2023-05-23T05:04:50.414Z,599.00
2023-05-23T05:05:50.446Z,602.00
2023-05-23T05:06:50.456Z,602.00
2023-05-23T05:07:50.486Z,604.00
2023-05-23T05:08:50.545Z,602.00
2023-05-23T05:09:50.649Z,601.00
2023-05-23T05:10:50.653Z,602.00
2023-05-23T05:11:50.687Z,600.00
2023-05-23T05:12:50.717Z,599.00
2023-05-23T05:13:50.789Z,599.00
2023-05-23T05:14:50.821Z,599.00
2023-05-23T05:15:50.821Z,601.00
2023-05-23T05:16:50.916Z,602.00
2023-05-23T05:17:50.984Z,600.00
2023-05-23T05:18:50.975Z,602.00
2023-05-23T05:19:51.092Z,600.00
2023-05-23T05:20:51.020Z,599.00
2023-05-23T05:21:51.078Z,596.00
2023-05-23T05:22:51.127Z,598.00
2023-05-23T05:23:51.151Z,599.00
2023-05-23T05:24:51.227Z,598.00
2023-05-23T05:25:51.275Z,598.00
2023-05-23T05:26:51.285Z,597.00
2023-05-23T05:27:51.305Z,597.00
2023-05-23T05:28:51.398Z,595.00
2023-05-23T05:29:51.424Z,598.00
2023-05-23T05:30:51.505Z,596.00
2023-05-23T05:31:51.506Z,593.00
2023-05-23T05:32:51.688Z,594.00
2023-05-23T05:33:51.580Z,594.00
2023-05-23T05:34:51.672Z,596.00
2023-05-23T05:35:51.673Z,593.00
2023-05-23T05:36:51.698Z,593.00
2023-05-23T05:37:51.759Z,595.00
2023-05-23T05:38:51.793Z,595.00
2023-05-23T05:39:51.860Z,594.00
2023-05-23T05:40:51.933Z,589.00
2023-05-23T05:41:51.946Z,587.00
2023-05-23T05:42:51.962Z,589.00
2023-05-23T05:43:52.070Z,589.00
2023-05-23T05:44:52.092Z,590.00
2023-05-23T05:45:52.176Z,592.00
2023-05-23T05:46:52.218Z,593.00
2023-05-23T05:47:52.268Z,592.00
2023-05-23T05:48:52.271Z,592.00
2023-05-23T05:49:52.328Z,590.00
2023-05-23T05:50:52.361Z,590.00
2023-05-23T05:51:52.484Z,589.00
2023-05-23T05:52:52.439Z,588.00
2023-05-23T05:53:52.505Z,586.00
2023-05-23T05:54:52.545Z,586.00
2023-05-23T05:55:52.566Z,587.00
2023-05-23T05:56:52.712Z,586.00
2023-05-23T05:57:52.693Z,615.00
2023-05-23T05:58:52.699Z,643.00
2023-05-23T05:59:52.758Z,657.00
2023-05-23T06:00:52.781Z,761.00
2023-05-23T06:01:52.811Z,784.00
2023-05-23T06:02:52.908Z,805.00
2023-05-23T06:03:53.027Z,878.00
2023-05-23T06:04:52.885Z,891.00
2023-05-23T06:05:52.860Z,907.00
2023-05-23T06:06:52.860Z,917.00
2023-05-23T06:07:52.851Z,931.00
2023-05-23T06:08:52.906Z,965.00
2023-05-23T06:09:52.971Z,1023.00
2023-05-23T06:10:53.012Z,1069.00
2023-05-23T06:11:53.088Z,1095.00
2023-05-23T06:12:53.149Z,1111.00
2023-05-23T06:13:53.200Z,1123.00
2023-05-23T06:14:53.291Z,1130.00
2023-05-23T06:15:53.377Z,1134.00
2023-05-23T06:16:53.370Z,1141.00
2023-05-23T06:17:53.453Z,1186.00
2023-05-23T06:18:53.530Z,1225.00
2023-05-23T06:19:53.543Z,1314.00
2023-05-23T06:20:53.590Z,1376.00
2023-05-23T06:21:53.620Z,1397.00
2023-05-23T06:22:53.661Z,1332.00
2023-05-23T06:23:53.804Z,1353.00
2023-05-23T06:24:53.774Z,1338.00
2023-05-23T06:25:53.764Z,1193.00
2023-05-23T06:26:53.818Z,1233.00
2023-05-23T06:27:53.886Z,1207.00
2023-05-23T06:28:53.944Z,1209.00
2023-05-23T06:29:53.984Z,1398.00
2023-05-23T06:30:54.034Z,1145.00
2023-05-23T06:31:54.176Z,1113.00
2023-05-23T06:32:54.208Z,1130.00
2023-05-23T06:33:54.237Z,983.00
2023-05-23T06:34:54.325Z,1087.00
2023-05-23T06:35:54.362Z,1048.00
2023-05-23T06:36:54.414Z,1035.00
2023-05-23T06:37:54.493Z,1026.00
2023-05-23T06:38:54.534Z,968.00
2023-05-23T06:39:54.671Z,1147.00
2023-05-23T06:40:54.646Z,1301.00
2023-05-23T06:41:54.754Z,996.00
2023-05-23T06:42:54.798Z,939.00
2023-05-23T06:43:54.852Z,884.00
2023-05-23T06:44:54.961Z,1039.00
2023-05-23T06:45:54.995Z,1014.00
2023-05-23T06:46:55.014Z,890.00
2023-05-23T06:47:55.119Z,1056.00
2023-05-23T06:49:06.435Z,1087.00
2023-05-23T06:49:56.144Z,1210.00
2023-05-23T06:50:55.137Z,1153.00
2023-05-23T06:51:55.126Z,1115.00
2023-05-23T06:52:55.093Z,1115.00
2023-05-23T06:53:55.098Z,1151.00
2023-05-23T06:54:55.112Z,1286.00
2023-05-23T06:55:55.187Z,1240.00
2023-05-23T06:56:55.100Z,1237.00
2023-05-23T06:57:55.112Z,1380.00
2023-05-23T06:58:55.186Z,1499.00
2023-05-23T06:59:55.251Z,1522.00
2023-05-23T07:00:55.289Z,1545.00
2023-05-23T07:01:55.311Z,1531.00
2023-05-23T07:02:55.448Z,1514.00
2023-05-23T07:03:55.383Z,1522.00
2023-05-23T07:04:55.448Z,1539.00
2023-05-23T07:05:55.536Z,1514.00
2023-05-23T07:06:55.486Z,1563.00
2023-05-23T07:07:55.536Z,1606.00
2023-05-23T07:08:55.736Z,1612.00
2023-05-23T07:09:55.583Z,1627.00
2023-05-23T07:10:55.578Z,1677.00
2023-05-23T07:11:55.695Z,1697.00
2023-05-23T07:12:55.577Z,1804.00
2023-05-23T07:13:55.621Z,1794.00
2023-05-23T07:14:55.646Z,1793.00
2023-05-23T07:15:55.742Z,1812.00
2023-05-23T07:16:55.677Z,1836.00
2023-05-23T07:17:55.722Z,1870.00
2023-05-23T07:18:55.838Z,1895.00
2023-05-23T07:19:55.669Z,1918.00
2023-05-23T07:20:55.714Z,1924.00
2023-05-23T07:21:55.736Z,1940.00
2023-05-23T07:22:55.705Z,1984.00
2023-05-23T07:23:55.740Z,1984.00
2023-05-23T07:24:55.761Z,1987.00
2023-05-23T07:26:02.684Z,2086.00
2023-05-23T07:26:56.756Z,2043.00
2023-05-23T07:27:55.846Z,2052.00
2023-05-23T07:28:55.782Z,2066.00
2023-05-23T07:29:55.785Z,2074.00
2023-05-23T07:30:55.755Z,2085.00
2023-05-23T07:31:55.737Z,2099.00
2023-05-23T07:32:55.730Z,2108.00
2023-05-23T07:33:55.918Z,2111.00
2023-05-23T07:34:55.715Z,2251.00
2023-05-23T07:35:55.713Z,2270.00
2023-05-23T07:36:55.687Z,2276.00
2023-05-23T07:37:55.688Z,2261.00
2023-05-23T07:38:55.685Z,2261.00
2023-05-23T07:39:55.679Z,2273.00
2023-05-23T07:41:10.044Z,2295.00
2023-05-23T07:41:56.880Z,2354.00
2023-05-23T07:42:55.879Z,2363.00
2023-05-23T07:43:55.857Z,2351.00
2023-05-23T07:44:55.839Z,2337.00
2023-05-23T07:45:55.877Z,2305.00
2023-05-23T07:46:56.014Z,2291.00
2023-05-23T07:47:55.893Z,2282.00
2023-05-23T07:48:55.958Z,2275.00
2023-05-23T07:49:55.972Z,2276.00
2023-05-23T07:50:56.020Z,2273.00
2023-05-23T07:51:56.102Z,2241.00
2023-05-23T07:52:56.198Z,2176.00
2023-05-23T07:53:56.181Z,2147.00
2023-05-23T07:54:56.224Z,2144.00
2023-05-23T07:55:56.296Z,2150.00
2023-05-23T07:56:56.336Z,2156.00
2023-05-23T07:57:56.406Z,2162.00
2023-05-23T07:58:56.664Z,2174.00
2023-05-23T07:59:56.756Z,2188.00
2023-05-23T08:00:56.612Z,2189.00
2023-05-23T08:01:56.741Z,2177.00
2023-05-23T08:02:56.758Z,2142.00
2023-05-23T08:03:56.808Z,2080.00
2023-05-23T08:04:56.995Z,2022.00
2023-05-23T08:05:56.860Z,2017.00
2023-05-23T08:07:56.959Z,1994.00
2023-05-23T08:08:56.919Z,1986.00
2023-05-23T08:09:56.981Z,1982.00
2023-05-23T08:10:56.958Z,1983.00
2023-05-23T08:11:56.884Z,1987.00
2023-05-23T08:12:56.880Z,1979.00
2023-05-23T08:13:57.115Z,1980.00
2023-05-23T08:14:56.854Z,1964.00
2023-05-23T08:15:56.872Z,1956.00
2023-05-23T08:16:56.904Z,1947.00
2023-05-23T08:17:56.955Z,1944.00
2023-05-23T08:18:56.972Z,1941.00
2023-05-23T08:19:56.852Z,1934.00
2023-05-23T08:20:56.803Z,1928.00
2023-05-23T08:21:56.813Z,1924.00
2023-05-23T08:22:56.817Z,1931.00
2023-05-23T08:23:56.783Z,1928.00
2023-05-23T08:24:56.808Z,1924.00
2023-05-23T08:25:56.821Z,1921.00
2023-05-23T08:26:56.806Z,1923.00
2023-05-23T08:27:56.782Z,1926.00
2023-05-23T08:28:56.745Z,1921.00
2023-05-23T08:29:56.773Z,1914.00
2023-05-23T08:30:56.811Z,1914.00
2023-05-23T08:31:56.801Z,1910.00
2023-05-23T08:32:56.782Z,1907.00
2023-05-23T08:33:56.759Z,1905.00
2023-05-23T08:34:56.733Z,1907.00
2023-05-23T08:35:56.745Z,1910.00
2023-05-23T08:36:56.714Z,1906.00
2023-05-23T08:37:56.731Z,1901.00
2023-05-23T08:38:56.699Z,1893.00
2023-05-23T08:39:56.701Z,1885.00
2023-05-23T08:40:56.717Z,1879.00
2023-05-23T08:41:56.684Z,1872.00
2023-05-23T08:42:56.685Z,1870.00
2023-05-23T08:43:56.656Z,1869.00
2023-05-23T08:44:56.670Z,1867.00
2023-05-23T08:45:56.697Z,1866.00
2023-05-23T08:46:56.652Z,1865.00
2023-05-23T08:47:56.661Z,1869.00
2023-05-23T08:48:56.662Z,1866.00
2023-05-23T08:49:56.672Z,1867.00
2023-05-23T08:50:56.593Z,1862.00
2023-05-23T08:51:56.619Z,1861.00
2023-05-23T08:52:56.669Z,1894.00
2023-05-23T08:53:56.592Z,1987.00
2023-05-23T08:54:56.606Z,1986.00
2023-05-23T08:55:56.667Z,2001.00
2023-05-23T08:56:56.583Z,2020.00
2023-05-23T08:57:56.591Z,2032.00
2023-05-23T08:58:56.585Z,2059.00
2023-05-23T08:59:56.569Z,2072.00
2023-05-23T09:00:56.692Z,2101.00
2023-05-23T09:01:56.628Z,2119.00
2023-05-23T09:02:56.597Z,2133.00
2023-05-23T09:03:56.562Z,2149.00
2023-05-23T09:04:56.532Z,2168.00
2023-05-23T09:05:56.677Z,2185.00
2023-05-23T09:06:56.535Z,2207.00
2023-05-23T09:07:56.518Z,2220.00
2023-05-23T09:08:56.493Z,2232.00
2023-05-23T09:09:56.516Z,2243.00
2023-05-23T09:10:56.510Z,2261.00
2023-05-23T09:11:56.511Z,2335.00
2023-05-23T09:12:56.510Z,2350.00
2023-05-23T09:13:56.474Z,2355.00
2023-05-23T09:14:56.495Z,2358.00
2023-05-23T09:15:56.486Z,2368.00
2023-05-23T09:16:56.454Z,2391.00
2023-05-23T09:17:56.519Z,2415.00
2023-05-23T09:18:56.530Z,2428.00
2023-05-23T09:19:56.566Z,2441.00
2023-05-23T09:20:56.545Z,2499.00
2023-05-23T09:21:56.547Z,2506.00
2023-05-23T09:22:56.591Z,2517.00
2023-05-23T09:23:56.606Z,2521.00
2023-05-23T09:24:56.616Z,2517.00
2023-05-23T09:25:56.677Z,2525.00
2023-05-23T09:26:56.709Z,2531.00
2023-05-23T09:27:56.672Z,2556.00
2023-05-23T09:28:56.725Z,2600.00
2023-05-23T09:29:56.716Z,2605.00
2023-05-23T09:30:56.704Z,2445.00
2023-05-23T09:31:56.839Z,2465.00
2023-05-23T09:32:56.788Z,2469.00
2023-05-23T09:33:56.773Z,2478.00
2023-05-23T09:34:56.758Z,2472.00
2023-05-23T09:35:56.871Z,2413.00
2023-05-23T09:36:56.778Z,2390.00
2023-05-23T09:37:56.795Z,2357.00
2023-05-23T09:38:56.772Z,2189.00
2023-05-23T09:39:56.818Z,2201.00
2023-05-23T09:40:56.813Z,2216.00
2023-05-23T09:41:56.798Z,2196.00
2023-05-23T09:42:56.842Z,2298.00
2023-05-23T09:43:56.834Z,2267.00
2023-05-23T09:44:56.866Z,2205.00
2023-05-23T09:45:56.853Z,2179.00
2023-05-23T09:46:56.855Z,2186.00
2023-05-23T09:47:56.905Z,2184.00
2023-05-23T09:48:56.897Z,2188.00
2023-05-23T09:49:56.894Z,2035.00
2023-05-23T09:50:56.909Z,1987.00
2023-05-23T09:51:56.938Z,2017.00
2023-05-23T09:52:56.968Z,2025.00
2023-05-23T09:53:57.101Z,2025.00
2023-05-23T09:54:56.995Z,2030.00
2023-05-23T09:55:57.026Z,2028.00
2023-05-23T09:56:57.329Z,2031.00
2023-05-23T09:57:57.061Z,2026.00
2023-05-23T09:58:57.023Z,2020.00
2023-05-23T09:59:57.062Z,2007.00
2023-05-23T10:00:57.056Z,1965.00
2023-05-23T10:01:57.067Z,1946.00
2023-05-23T10:02:57.136Z,1941.00
2023-05-23T10:03:59.417Z,1880.00
2023-05-23T10:04:57.056Z,1848.00
2023-05-23T10:05:57.033Z,1830.00
2023-05-23T10:06:57.087Z,1817.00
2023-05-23T10:07:57.030Z,1802.00
2023-05-23T10:08:57.006Z,1810.00
2023-05-23T10:09:59.123Z,1794.00
2023-05-23T10:10:57.154Z,1835.00
2023-05-23T10:11:57.013Z,1711.00
2023-05-23T10:12:56.991Z,1706.00
2023-05-23T10:13:56.980Z,1692.00
2023-05-23T10:14:57.016Z,1763.00
2023-05-23T10:15:58.163Z,1691.00
2023-05-23T10:16:57.019Z,1707.00
2023-05-23T10:17:57.061Z,1727.00
2023-05-23T10:18:57.047Z,1814.00
2023-05-23T10:19:57.002Z,1799.00
2023-05-23T10:20:57.019Z,1786.00
2023-05-23T10:21:57.021Z,1781.00
2023-05-23T10:22:57.024Z,1776.00
2023-05-23T10:23:57.007Z,1770.00
2023-05-23T10:24:57.023Z,1754.00
2023-05-23T10:25:56.990Z,1741.00
2023-05-23T10:26:57.010Z,1659.00
2023-05-23T10:27:56.995Z,1635.00
2023-05-23T10:28:57.025Z,1664.00
2023-05-23T10:29:57.024Z,1728.00
2023-05-23T10:30:57.130Z,1715.00
2023-05-23T10:31:57.005Z,1711.00
2023-05-23T10:32:57.028Z,1686.00
2023-05-23T10:33:57.044Z,1636.00
2023-05-23T10:34:57.100Z,1621.00
2023-05-23T10:35:57.023Z,1587.00
2023-05-23T10:36:57.002Z,1220.00
2023-05-23T10:37:57.111Z,1191.00
2023-05-23T10:38:57.003Z,1132.00
2023-05-23T10:39:57.041Z,1131.00
2023-05-23T10:40:57.071Z,1015.00
2023-05-23T10:41:57.096Z,964.00
2023-05-23T10:42:57.139Z,903.00
2023-05-23T10:43:57.171Z,1039.00
2023-05-23T10:44:57.590Z,1013.00
2023-05-23T10:45:57.311Z,1010.00
2023-05-23T10:46:57.347Z,1017.00
2023-05-23T10:47:57.346Z,1013.00
2023-05-23T10:48:57.441Z,1004.00
2023-05-23T10:49:57.452Z,998.00
2023-05-23T10:50:57.519Z,993.00
2023-05-23T10:51:57.560Z,990.00
2023-05-23T10:52:57.592Z,981.00
2023-05-23T10:53:57.637Z,977.00
2023-05-23T10:54:57.727Z,957.00
2023-05-23T10:55:57.745Z,948.00
2023-05-23T10:56:57.831Z,947.00
2023-05-23T10:57:57.853Z,940.00
2023-05-23T10:58:57.937Z,938.00
2023-05-23T10:59:57.935Z,940.00
2023-05-23T11:00:58.046Z,940.00
2023-05-23T11:01:58.107Z,942.00
2023-05-23T11:02:58.187Z,940.00
2023-05-23T11:03:58.294Z,940.00
2023-05-23T11:04:58.230Z,941.00
2023-05-23T11:05:58.256Z,939.00
2023-05-23T11:06:58.350Z,936.00
2023-05-23T11:07:58.415Z,934.00
2023-05-23T11:08:58.486Z,932.00
2023-05-23T11:09:58.509Z,931.00
2023-05-23T11:10:58.563Z,928.00
2023-05-23T11:11:58.637Z,928.00
2023-05-23T11:12:58.704Z,924.00
2023-05-23T11:13:58.758Z,921.00
2023-05-23T11:14:58.830Z,915.00
2023-05-23T11:15:58.931Z,912.00
2023-05-23T11:16:58.953Z,909.00
2023-05-23T11:17:59.043Z,912.00
2023-05-23T11:18:59.092Z,915.00
2023-05-23T11:19:59.131Z,913.00
2023-05-23T11:20:59.179Z,913.00
2023-05-23T11:21:59.237Z,919.00
2023-05-23T11:22:59.288Z,923.00
2023-05-23T11:23:59.364Z,927.00
2023-05-23T11:24:59.445Z,927.00
2023-05-23T11:25:59.476Z,930.00
2023-05-23T11:26:59.527Z,926.00
2023-05-23T11:27:59.624Z,925.00
2023-05-23T11:28:59.714Z,929.00
2023-05-23T11:29:59.714Z,933.00
2023-05-23T11:30:59.792Z,931.00
2023-05-23T11:31:59.888Z,930.00
2023-05-23T11:32:59.959Z,928.00
2023-05-23T11:34:00.050Z,928.00
2023-05-23T11:35:00.094Z,928.00
2023-05-23T11:36:00.162Z,929.00
2023-05-23T11:37:00.208Z,929.00
2023-05-23T11:38:00.293Z,928.00
2023-05-23T11:39:00.321Z,922.00
2023-05-23T11:40:00.388Z,915.00
2023-05-23T11:41:00.487Z,917.00
2023-05-23T11:42:00.508Z,913.00
2023-05-23T11:43:00.566Z,915.00
2023-05-23T11:44:00.644Z,915.00
2023-05-23T11:45:00.696Z,914.00
2023-05-23T11:46:00.807Z,915.00
2023-05-23T11:47:00.808Z,913.00
2023-05-23T11:48:00.856Z,912.00
2023-05-23T11:49:00.929Z,909.00
2023-05-23T11:50:00.974Z,907.00
2023-05-23T11:51:01.055Z,907.00
2023-05-23T11:52:01.051Z,908.00
2023-05-23T11:53:01.164Z,909.00
2023-05-23T11:54:01.190Z,905.00
2023-05-23T11:55:03.855Z,908.00
2023-05-23T11:56:01.252Z,905.00
2023-05-23T11:57:01.250Z,902.00
2023-05-23T11:58:01.839Z,899.00
2023-05-23T11:59:01.273Z,897.00
2023-05-23T12:00:01.191Z,899.00
2023-05-23T12:01:01.217Z,901.00
2023-05-23T12:02:01.237Z,899.00
2023-05-23T12:03:01.329Z,900.00
2023-05-23T12:04:01.398Z,896.00
2023-05-23T12:05:01.249Z,895.00
2023-05-23T12:06:01.235Z,895.00
2023-05-23T12:07:01.194Z,893.00
2023-05-23T12:08:01.182Z,891.00
2023-05-23T12:09:01.177Z,887.00
2023-05-23T12:10:01.188Z,883.00
2023-05-23T12:11:01.157Z,880.00
2023-05-23T12:12:01.177Z,880.00
2023-05-23T12:13:01.178Z,884.00
2023-05-23T12:14:01.136Z,883.00
2023-05-23T12:15:01.158Z,882.00
2023-05-23T12:16:01.175Z,882.00
2023-05-23T12:17:01.102Z,881.00
2023-05-23T12:18:01.144Z,880.00
2023-05-23T12:19:01.174Z,880.00
2023-05-23T12:20:01.080Z,879.00
2023-05-23T12:21:01.077Z,872.00
2023-05-23T12:22:01.075Z,868.00
2023-05-23T12:23:01.080Z,868.00